Terminal Aerodrome Forecast
Issued by NWS St Louis, MO

Home | Current Version | Previous Version | Text Only | Print | Product List | Glossary On
Versions: 1 2 3 4 5 6 7 8 9 10 11 12 13 14 15 16
757
FTUS43 KLSX 210400 AAA
TAFCOU
TAF AMD
KCOU 210420Z 2104/2124 34007KT P6SM OVC015
     FM211400 32008KT P6SM BKN020
     FM211800 32010KT P6SM SCT050=

USA.gov is the U.S. government's official web portal to all federal, state and local government web resources and services.